Time;durP1;ratioP1;P1;durP2;ratioP2;P2;SDS_P1;SDS_P2;PMS_P1;PMS_P2;Temp;Humidity;BMP_temperature;BMP_pressure;BME280_temperature;BME280_humidity;BME280_pressure;Samples;Min_cycle;Max_cycle;Signal;HPM_P1;HPM_P2
2022/09/08 00:00:19;;;;;;;30.00;14.38;;;21.20;99.90;;;;;;5071208;28;20055;-68
2022/09/08 00:02:45;;;;;;;17.88;12.43;;;21.20;99.90;;;;;;5070911;28;20036;-68
2022/09/08 00:05:14;;;;;;;19.38;11.77;;;21.30;99.90;;;;;;5071075;28;20371;-68
2022/09/08 00:07:42;;;;;;;21.42;12.82;;;21.30;99.90;;;;;;5069608;28;20020;-69
2022/09/08 00:10:08;;;;;;;19.58;12.90;;;21.30;99.90;;;;;;5070586;28;20135;-69
2022/09/08 00:12:39;;;;;;;20.35;13.52;;;21.30;99.90;;;;;;5069203;28;20026;-68
2022/09/08 00:15:05;;;;;;;19.10;12.50;;;21.30;99.90;;;;;;5069772;28;20028;-68
2022/09/08 00:17:32;;;;;;;22.17;12.85;;;21.30;99.90;;;;;;5071942;28;20070;-68
2022/09/08 00:19:57;;;;;;;20.08;12.63;;;21.30;99.90;;;;;;5071947;28;20060;-69
2022/09/08 00:22:24;;;;;;;20.23;12.50;;;21.30;99.90;;;;;;5071695;28;20048;-69
2022/09/08 00:24:49;;;;;;;22.42;11.75;;;21.30;99.90;;;;;;5072306;28;20041;-69
2022/09/08 00:27:15;;;;;;;15.85;11.00;;;21.30;99.90;;;;;;5071758;28;20031;-69
2022/09/08 00:29:41;;;;;;;18.55;10.80;;;21.40;99.90;;;;;;5071773;28;20587;-69
2022/09/08 00:32:07;;;;;;;15.65;10.02;;;21.40;99.90;;;;;;5071617;28;20016;-69
2022/09/08 00:34:34;;;;;;;15.35;8.20;;;21.30;99.90;;;;;;5071700;28;20059;-69
2022/09/08 00:37:00;;;;;;;13.70;7.50;;;21.40;99.90;;;;;;5081757;28;20514;-69
2022/09/08 00:39:26;;;;;;;15.00;8.45;;;21.40;99.90;;;;;;5072855;28;20482;-69
2022/09/08 00:41:52;;;;;;;16.08;9.02;;;21.40;99.90;;;;;;5071832;28;20028;-69
2022/09/08 00:44:38;;;;;;;14.10;8.27;;;21.30;99.90;;;;;;5071664;28;20116;-70
2022/09/08 00:47:13;;;;;;;14.32;8.90;;;21.30;99.90;;;;;;5071725;28;20029;-69
2022/09/08 00:49:39;;;;;;;13.30;7.20;;;21.30;99.90;;;;;;5081899;28;20032;-67
2022/09/08 00:52:05;;;;;;;18.23;7.60;;;21.40;99.90;;;;;;5084609;28;20031;-63
2022/09/08 00:54:31;;;;;;;13.65;7.47;;;21.50;99.90;;;;;;5071125;28;20021;-69
2022/09/08 00:56:58;;;;;;;20.38;8.55;;;21.40;99.90;;;;;;5071675;28;20020;-68
2022/09/08 00:59:25;;;;;;;16.77;7.45;;;21.40;99.90;;;;;;5071585;28;20032;-69
2022/09/08 01:01:52;;;;;;;12.73;7.38;;;21.30;99.90;;;;;;5071294;28;20021;-69
2022/09/08 01:04:18;;;;;;;12.63;7.60;;;21.30;99.90;;;;;;5071403;28;20135;-69
2022/09/08 01:12:58;;;;;;;15.15;7.15;;;21.50;99.90;;;;;;5072202;28;20060;-69
2022/09/08 01:15:27;;;;;;;13.13;6.15;;;21.50;99.90;;;;;;5071797;28;20020;-69
2022/09/08 01:17:54;;;;;;;11.85;6.35;;;21.50;99.90;;;;;;5071897;28;20397;-70
2022/09/08 01:20:27;;;;;;;13.38;5.35;;;21.60;99.90;;;;;;5071953;28;20063;-68
2022/09/08 01:23:02;;;;;;;10.80;5.00;;;21.60;99.90;;;;;;5072010;28;20020;-68
2022/09/08 01:25:31;;;;;;;12.10;5.65;;;21.60;99.90;;;;;;5071842;28;20499;-70
2022/09/08 01:28:23;;;;;;;10.25;5.45;;;21.40;99.90;;;;;;5072237;28;20066;-69
2022/09/08 01:30:49;;;;;;;16.35;6.00;;;21.40;99.90;;;;;;5071991;28;20037;-68
2022/09/08 01:33:16;;;;;;;10.15;6.45;;;21.40;99.90;;;;;;5074770;28;20446;-69
2022/09/08 01:35:43;;;;;;;11.65;6.93;;;21.50;99.90;;;;;;5076029;28;20051;-69
2022/09/08 01:38:10;;;;;;;12.23;6.18;;;21.40;99.90;;;;;;5076024;28;20115;-68
2022/09/08 01:40:38;;;;;;;14.32;6.35;;;21.20;99.90;;;;;;5076222;28;20380;-68
2022/09/08 01:43:08;;;;;;;13.82;6.65;;;21.10;99.90;;;;;;5076102;28;20055;-69
2022/09/08 01:45:34;;;;;;;15.90;7.75;;;21.20;99.90;;;;;;5075654;28;20390;-69
2022/09/08 01:48:01;;;;;;;15.38;8.02;;;21.20;99.90;;;;;;5076043;28;20028;-69
2022/09/08 01:50:26;;;;;;;16.38;7.38;;;21.20;99.90;;;;;;5076031;28;20526;-69
2022/09/08 01:52:52;;;;;;;14.68;7.68;;;21.20;99.90;;;;;;5075916;28;20100;-69
2022/09/08 01:55:18;;;;;;;15.02;7.68;;;21.10;99.90;;;;;;5075874;28;20497;-69
2022/09/08 01:57:44;;;;;;;11.93;7.15;;;21.10;99.90;;;;;;5075529;28;20021;-69
2022/09/08 02:00:10;;;;;;;14.98;8.07;;;21.10;99.90;;;;;;5084498;28;20101;-69
2022/09/08 02:02:36;;;;;;;15.77;8.65;;;21.20;99.90;;;;;;5078228;28;20106;-68
2022/09/08 02:05:03;;;;;;;12.43;7.47;;;21.20;99.90;;;;;;5075892;28;20072;-67
2022/09/08 02:07:31;;;;;;;13.80;7.47;;;21.30;99.90;;;;;;5089756;28;20017;-69
2022/09/08 02:09:57;;;;;;;16.20;8.77;;;21.30;99.90;;;;;;5071638;28;20466;-69
2022/09/08 02:12:23;;;;;;;15.40;9.02;;;21.40;99.90;;;;;;5075337;28;20023;-69
2022/09/08 02:14:49;;;;;;;15.52;9.35;;;21.40;99.90;;;;;;5075446;28;20063;-69
2022/09/08 02:17:14;;;;;;;18.17;8.90;;;21.40;99.90;;;;;;5075176;28;20013;-69
2022/09/08 02:19:40;;;;;;;15.55;8.13;;;21.40;99.90;;;;;;5075479;28;20032;-69
2022/09/08 02:22:06;;;;;;;20.92;7.93;;;21.40;99.90;;;;;;5074885;28;20020;-69
2022/09/08 02:24:33;;;;;;;16.40;7.32;;;21.40;99.90;;;;;;5075302;28;20046;-68
2022/09/08 02:26:59;;;;;;;13.43;7.22;;;21.30;99.90;;;;;;5075096;28;20029;-70
2022/09/08 02:29:26;;;;;;;10.20;5.97;;;21.30;99.90;;;;;;5075287;28;20082;-69
2022/09/08 02:31:52;;;;;;;14.35;6.85;;;21.30;99.90;;;;;;5075004;28;20027;-69
2022/09/08 02:34:17;;;;;;;10.48;6.25;;;21.30;99.90;;;;;;5074916;28;20103;-69
2022/09/08 02:36:43;;;;;;;12.13;6.18;;;21.30;99.90;;;;;;5075285;28;20035;-69
2022/09/08 02:39:18;;;;;;;13.00;6.28;;;21.30;99.90;;;;;;5074795;28;20021;-70
2022/09/08 02:41:43;;;;;;;12.48;6.47;;;21.30;99.90;;;;;;5075072;28;20028;-69
2022/09/08 02:44:11;;;;;;;12.30;6.25;;;21.30;99.90;;;;;;5073695;28;20237;-70
2022/09/08 02:46:38;;;;;;;10.35;5.90;;;21.20;99.90;;;;;;5079546;28;20111;-69
2022/09/08 02:49:04;;;;;;;11.85;6.53;;;21.10;99.90;;;;;;5074859;28;20106;-70
2022/09/08 02:51:31;;;;;;;14.63;6.43;;;21.10;99.90;;;;;;5074839;28;20025;-70
2022/09/08 02:53:57;;;;;;;19.25;6.82;;;21.10;99.90;;;;;;5074853;28;20074;-69
2022/09/08 02:56:24;;;;;;;11.95;5.90;;;21.10;99.90;;;;;;5074641;28;20020;-70
2022/09/08 02:58:50;;;;;;;16.80;6.50;;;21.10;99.90;;;;;;5074209;28;20048;-69
2022/09/08 03:01:16;;;;;;;11.30;6.50;;;21.10;99.90;;;;;;5074812;28;20059;-67
2022/09/08 03:03:42;;;;;;;12.15;7.05;;;21.00;99.90;;;;;;5074095;28;20394;-68
2022/09/08 03:06:09;;;;;;;12.98;6.65;;;21.00;99.90;;;;;;5074999;28;20051;-69
2022/09/08 03:08:34;;;;;;;12.27;6.05;;;21.00;99.90;;;;;;5077664;28;20021;-69
2022/09/08 03:11:01;;;;;;;12.38;6.60;;;20.90;99.90;;;;;;5085142;28;20393;-70
2022/09/08 03:13:28;;;;;;;11.68;6.72;;;20.90;99.90;;;;;;5074145;28;20021;-70
2022/09/08 03:15:54;;;;;;;15.52;6.88;;;20.90;99.90;;;;;;5080968;28;20025;-69
2022/09/08 03:18:20;;;;;;;13.73;6.90;;;20.90;99.90;;;;;;5081396;28;20020;-70
2022/09/08 03:20:57;;;;;;;14.43;6.60;;;20.90;99.90;;;;;;5073852;28;20548;-70
2022/09/08 03:23:24;;;;;;;12.00;6.32;;;20.90;99.90;;;;;;5074124;28;20383;-64
2022/09/08 03:25:50;;;;;;;12.88;6.82;;;20.80;99.90;;;;;;5073895;28;20467;-68
2022/09/08 03:28:21;;;;;;;10.90;6.57;;;20.90;99.90;;;;;;5073628;28;20085;-70
2022/09/08 03:30:47;;;;;;;14.63;7.03;;;20.90;99.90;;;;;;5074016;28;20028;-70
2022/09/08 03:33:12;;;;;;;10.63;6.72;;;20.90;99.90;;;;;;5073805;28;20425;-69
2022/09/08 03:35:38;;;;;;;12.82;6.72;;;20.70;99.90;;;;;;5067705;28;20493;-69
2022/09/08 03:38:06;;;;;;;12.93;7.32;;;20.70;99.90;;;;;;5071322;28;20417;-69
2022/09/08 03:40:34;;;;;;;12.60;7.15;;;20.70;99.90;;;;;;5073217;28;20035;-68
2022/09/08 03:43:00;;;;;;;14.63;7.57;;;20.70;99.90;;;;;;5068999;28;20013;-70
2022/09/08 03:45:26;;;;;;;17.88;7.35;;;20.70;99.90;;;;;;5069642;28;20177;-70
2022/09/08 03:47:52;;;;;;;10.27;6.57;;;20.60;99.90;;;;;;5071523;28;20543;-70
2022/09/08 03:50:18;;;;;;;18.45;7.25;;;20.60;99.90;;;;;;5069900;28;20032;-70
2022/09/08 03:52:44;;;;;;;15.82;6.82;;;20.60;99.90;;;;;;5072002;28;20470;-70
2022/09/08 03:55:11;;;;;;;16.10;7.93;;;20.60;99.90;;;;;;5073006;28;20431;-69
2022/09/08 03:57:38;;;;;;;14.63;7.72;;;20.60;99.90;;;;;;5079011;28;20008;-69
2022/09/08 04:00:07;;;;;;;15.20;8.55;;;20.70;99.90;;;;;;5069342;28;20047;-68
2022/09/08 04:02:37;;;;;;;12.73;6.43;;;20.70;99.90;;;;;;5084819;28;20036;-69
2022/09/08 04:05:04;;;;;;;12.10;7.28;;;20.80;99.90;;;;;;5072909;28;20135;-69
2022/09/08 04:07:31;;;;;;;16.80;8.25;;;20.80;99.90;;;;;;5072642;28;20012;-70
2022/09/08 04:09:57;;;;;;;13.77;8.25;;;20.80;99.90;;;;;;5072257;28;20029;-69
2022/09/08 04:12:24;;;;;;;13.85;7.25;;;20.80;99.90;;;;;;5072511;28;20016;-69
2022/09/08 04:14:50;;;;;;;13.73;7.72;;;20.80;99.90;;;;;;5073031;28;20028;-70
2022/09/08 04:17:17;;;;;;;13.93;7.50;;;20.80;99.90;;;;;;5089183;28;20016;-69
2022/09/08 04:19:43;;;;;;;15.80;8.68;;;20.70;99.90;;;;;;5084129;28;20028;-70
2022/09/08 04:22:09;;;;;;;14.10;8.57;;;20.70;99.90;;;;;;5080160;28;20099;-70
2022/09/08 04:24:34;;;;;;;16.08;7.82;;;20.50;99.90;;;;;;5086544;28;20518;-70
2022/09/08 04:27:01;;;;;;;13.48;8.68;;;20.50;99.90;;;;;;5072415;28;20366;-69
2022/09/08 04:29:26;;;;;;;14.90;9.07;;;20.50;99.90;;;;;;5072765;28;20399;-69
2022/09/08 04:31:52;;;;;;;14.90;8.32;;;20.50;99.90;;;;;;5081739;28;20027;-70
2022/09/08 04:34:18;;;;;;;19.08;7.57;;;20.50;99.90;;;;;;5076567;28;20116;-69
2022/09/08 04:36:45;;;;;;;19.92;8.43;;;20.60;99.90;;;;;;5072064;28;20542;-69
2022/09/08 04:39:12;;;;;;;17.30;8.23;;;20.60;99.90;;;;;;5072852;28;20400;-63
2022/09/08 04:41:39;;;;;;;13.68;7.57;;;20.60;99.90;;;;;;5075044;28;20032;-67
2022/09/08 04:44:06;;;;;;;13.13;8.40;;;20.70;99.90;;;;;;5071054;28;20562;-70
2022/09/08 04:46:33;;;;;;;14.60;7.93;;;21.40;99.90;;;;;;5070340;28;20024;-70
2022/09/08 04:48:59;;;;;;;12.63;6.75;;;21.70;99.90;;;;;;5071986;28;20561;-68
2022/09/08 04:51:26;;;;;;;14.15;6.95;;;21.50;99.90;;;;;;5070771;28;20032;-69
2022/09/08 04:53:53;;;;;;;13.35;7.68;;;21.50;99.90;;;;;;5070621;28;20028;-71
2022/09/08 04:56:20;;;;;;;15.35;7.85;;;21.40;99.90;;;;;;5070428;28;20020;-68
2022/09/08 04:58:47;;;;;;;17.08;8.40;;;21.30;99.90;;;;;;5067347;28;20025;-67
2022/09/08 05:01:15;;;;;;;13.43;7.90;;;21.20;99.90;;;;;;5072035;28;20028;-69
2022/09/08 05:03:41;;;;;;;19.85;8.85;;;21.10;99.90;;;;;;5071277;28;20041;-69
2022/09/08 05:06:10;;;;;;;15.18;7.75;;;20.90;99.90;;;;;;5071652;28;20032;-69
2022/09/08 05:08:36;;;;;;;18.65;7.80;;;21.00;99.90;;;;;;5075142;28;20066;-69
2022/09/08 05:11:02;;;;;;;13.93;8.55;;;21.00;99.90;;;;;;5082085;28;20035;-68
2022/09/08 05:13:29;;;;;;;18.23;8.02;;;21.00;99.90;;;;;;5071865;28;20025;-68
2022/09/08 05:16:06;;;;;;;14.05;7.45;;;21.10;99.90;;;;;;5072039;28;20013;-69
2022/09/08 05:18:33;;;;;;;12.75;7.38;;;21.10;99.90;;;;;;5053171;28;20047;-69
2022/09/08 05:20:59;;;;;;;18.08;8.15;;;21.20;99.90;;;;;;5071840;28;20043;-69
2022/09/08 05:23:25;;;;;;;15.40;7.78;;;21.20;99.90;;;;;;5072462;28;20033;-69
2022/09/08 05:25:56;;;;;;;14.05;7.90;;;21.10;99.90;;;;;;5071971;28;20113;-69
2022/09/08 05:28:23;;;;;;;20.25;9.05;;;21.20;99.90;;;;;;5072053;28;20067;-70
2022/09/08 05:30:49;;;;;;;13.60;8.05;;;21.30;99.90;;;;;;5071306;28;20062;-69
2022/09/08 05:33:15;;;;;;;16.67;8.00;;;21.40;99.90;;;;;;5071570;28;20064;-69
2022/09/08 05:35:41;;;;;;;23.65;8.65;;;21.50;99.90;;;;;;5071984;28;20033;-69
2022/09/08 05:38:06;;;;;;;17.80;9.35;;;21.60;99.90;;;;;;5072323;28;20031;-69
2022/09/08 05:40:38;;;;;;;16.20;8.77;;;21.40;99.90;;;;;;5071849;28;20056;-69
2022/09/08 05:43:04;;;;;;;25.52;14.65;;;21.50;99.90;;;;;;5071829;28;20136;-69
2022/09/08 05:45:30;;;;;;;34.28;11.90;;;21.40;99.90;;;;;;5072069;28;20063;-69
2022/09/08 05:47:56;;;;;;;23.90;8.98;;;21.50;99.90;;;;;;5071128;28;20111;-69
2022/09/08 05:50:22;;;;;;;14.95;7.85;;;21.60;99.90;;;;;;5072007;28;20052;-68
2022/09/08 05:52:48;;;;;;;12.40;6.50;;;21.60;99.90;;;;;;5071782;28;20496;-67
2022/09/08 05:55:14;;;;;;;11.10;6.45;;;21.70;99.90;;;;;;5071710;28;20103;-69
2022/09/08 05:57:40;;;;;;;19.67;8.77;;;21.90;99.90;;;;;;5071294;28;20112;-69
2022/09/08 06:00:07;;;;;;;19.35;8.48;;;22.00;99.90;;;;;;5071878;28;20021;-69
2022/09/08 06:02:35;;;;;;;23.50;9.18;;;22.00;99.90;;;;;;5076269;28;20048;-64
2022/09/08 06:05:01;;;;;;;21.77;7.00;;;22.10;99.90;;;;;;5080121;28;20041;-69
2022/09/08 06:07:27;;;;;;;23.48;7.13;;;22.20;99.90;;;;;;5071370;28;20070;-70
2022/09/08 06:09:53;;;;;;;18.45;7.82;;;22.30;99.90;;;;;;5086188;28;20028;-70
2022/09/08 06:12:19;;;;;;;17.98;8.13;;;22.50;99.90;;;;;;5071908;28;20028;-69
2022/09/08 06:14:45;;;;;;;14.10;7.40;;;22.80;99.90;;;;;;5071337;28;20035;-70
2022/09/08 06:17:12;;;;;;;23.77;9.52;;;23.20;99.90;;;;;;5071734;28;20103;-69
2022/09/08 06:19:38;;;;;;;15.95;7.72;;;23.60;99.90;;;;;;5074662;28;20021;-70
2022/09/08 06:22:04;;;;;;;19.38;6.80;;;23.90;99.90;;;;;;5075084;28;20122;-70
2022/09/08 06:24:30;;;;;;;17.20;6.95;;;24.00;99.90;;;;;;5075391;28;20119;-70
2022/09/08 06:27:07;;;;;;;15.65;6.63;;;24.40;99.90;;;;;;5074950;28;20162;-70
2022/09/08 06:29:39;;;;;;;20.15;9.30;;;24.30;99.90;;;;;;5074877;28;20029;-70
2022/09/08 06:32:11;;;;;;;17.65;9.18;;;24.30;99.90;;;;;;5074683;28;20028;-70
2022/09/08 06:34:46;;;;;;;54.97;36.03;;;24.40;99.90;;;;;;5074781;28;20536;-69
2022/09/08 06:37:30;;;;;;;62.08;42.00;;;24.30;99.90;;;;;;5074241;28;20024;-69
2022/09/08 06:40:35;;;;;;;24.80;15.65;;;24.30;99.90;;;;;;5074602;28;20501;-69
2022/09/08 06:43:13;;;;;;;53.17;36.00;;;24.30;99.90;;;;;;5074296;28;20064;-69
2022/09/08 06:45:44;;;;;;;46.30;25.85;;;24.40;99.90;;;;;;5074465;28;20043;-69
2022/09/08 06:48:13;;;;;;;16.77;7.53;;;24.40;99.90;;;;;;5074955;28;20021;-70
2022/09/08 06:51:05;;;;;;;10.30;5.95;;;24.60;99.90;;;;;;5074780;28;20051;-69
2022/09/08 06:53:38;;;;;;;13.10;5.90;;;24.80;99.90;;;;;;4992526;28;20034;-65
2022/09/08 06:56:44;;;;;;;15.02;6.03;;;25.00;99.90;;;;;;4992153;28;20133;-69
2022/09/08 06:59:40;;;;;;;17.08;6.05;;;25.20;99.90;;;;;;4992077;28;20034;-70
2022/09/08 07:02:24;;;;;;;9.07;4.70;;;25.20;99.90;;;;;;4992534;28;20138;-69
2022/09/08 07:04:58;;;;;;;12.00;5.28;;;25.50;99.90;;;;;;4991863;28;20051;-70
2022/09/08 07:07:26;;;;;;;12.02;5.70;;;25.80;99.90;;;;;;4992224;28;20167;-70
2022/09/08 07:10:19;;;;;;;17.08;8.05;;;25.90;99.90;;;;;;4991405;28;20073;-70
2022/09/08 07:13:11;;;;;;;16.13;7.15;;;25.70;99.90;;;;;;4933808;29;20075;-70
2022/09/08 07:15:39;;;;;;;10.37;5.07;;;25.80;99.90;;;;;;4934053;29;20059;-70
2022/09/08 07:18:25;;;;;;;10.88;4.80;;;25.80;99.90;;;;;;4933821;29;20537;-70
2022/09/08 07:21:22;;;;;;;14.90;6.03;;;26.00;99.90;;;;;;4933884;29;20038;-69
2022/09/08 07:23:49;;;;;;;9.25;4.20;;;26.20;99.90;;;;;;4933254;29;20078;-69
2022/09/08 07:26:38;;;;;;;10.52;3.53;;;26.40;99.90;;;;;;4933740;29;20036;-69
2022/09/08 07:29:29;;;;;;;9.32;4.55;;;26.40;99.90;;;;;;4934153;29;20095;-69
2022/09/08 07:31:57;;;;;;;10.10;4.40;;;26.60;99.90;;;;;;4991814;28;20065;-70
2022/09/08 07:34:27;;;;;;;9.32;3.95;;;26.70;99.00;;;;;;4992048;28;20069;-70
2022/09/08 07:37:11;;;;;;;5.78;3.38;;;26.90;98.70;;;;;;4992323;28;20039;-70
2022/09/08 07:39:47;;;;;;;9.13;3.10;;;27.10;99.90;;;;;;4992174;28;20030;-70
2022/09/08 07:42:15;;;;;;;6.15;2.70;;;27.20;97.80;;;;;;4991380;28;20042;-70
2022/09/08 07:44:41;;;;;;;6.05;3.38;;;27.20;98.00;;;;;;4991787;28;20424;-70
2022/09/08 07:47:28;;;;;;;6.38;4.05;;;27.20;97.30;;;;;;4992030;28;20034;-70
2022/09/08 07:50:03;;;;;;;5.85;3.10;;;27.00;97.80;;;;;;5037235;28;20428;-69
2022/09/08 07:52:52;;;;;;;11.32;3.63;;;27.00;98.80;;;;;;5072908;28;20108;-69
2022/09/08 07:55:32;;;;;;;10.43;3.15;;;27.10;97.50;;;;;;5073408;28;20033;-70
2022/09/08 07:58:41;;;;;;;5.55;2.60;;;27.00;97.80;;;;;;5073378;28;20052;-70
2022/09/08 08:01:40;;;;;;;7.70;3.20;;;27.10;98.10;;;;;;5073240;28;20028;-67
2022/09/08 08:04:35;;;;;;;8.23;3.17;;;27.10;98.30;;;;;;5071834;28;20045;-67
2022/09/08 08:07:07;;;;;;;6.95;2.92;;;27.20;96.60;;;;;;4990618;28;20035;-68
2022/09/08 08:10:01;;;;;;;6.88;2.70;;;27.20;97.40;;;;;;4991116;28;20503;-67
2022/09/08 08:12:58;;;;;;;6.93;2.90;;;27.30;96.00;;;;;;4989984;28;20034;-66
2022/09/08 08:15:43;;;;;;;13.38;3.22;;;27.20;96.10;;;;;;4991003;28;20034;-68
2022/09/08 08:18:50;;;;;;;16.83;3.72;;;27.20;94.90;;;;;;4990206;28;20229;-70
2022/09/08 08:21:43;;;;;;;6.40;2.53;;;27.30;95.60;;;;;;4930363;29;20183;-67
2022/09/08 08:24:29;;;;;;;12.75;3.05;;;27.40;95.80;;;;;;4894726;29;20040;-66
2022/09/08 08:27:14;;;;;;;8.38;3.00;;;27.50;95.90;;;;;;4895632;29;20040;-69
2022/09/08 08:29:58;;;;;;;8.70;3.15;;;27.40;94.20;;;;;;4895242;29;20047;-68
2022/09/08 08:32:29;;;;;;;6.70;2.95;;;27.50;94.90;;;;;;4895342;29;20032;-68
2022/09/08 08:35:19;;;;;;;7.27;3.30;;;27.50;94.80;;;;;;4895498;29;20040;-68
2022/09/08 08:37:49;;;;;;;6.45;3.28;;;27.70;95.60;;;;;;4895376;29;20047;-68
2022/09/08 08:40:27;;;;;;;6.75;3.03;;;27.50;94.70;;;;;;4895529;29;20068;-67
2022/09/08 08:43:16;;;;;;;7.60;3.22;;;27.50;95.20;;;;;;4896272;29;20032;-68
2022/09/08 08:45:50;;;;;;;7.60;3.15;;;27.70;94.90;;;;;;4914140;29;20071;-67
2022/09/08 08:48:57;;;;;;;6.07;3.22;;;27.80;93.20;;;;;;4914136;29;20500;-68
2022/09/08 08:51:26;;;;;;;9.63;4.35;;;28.00;95.00;;;;;;4839616;29;20066;-68
2022/09/08 08:54:09;;;;;;;7.45;3.00;;;28.10;95.20;;;;;;4839514;29;20056;-68
2022/09/08 08:56:39;;;;;;;6.07;2.80;;;28.30;94.10;;;;;;4846037;29;20033;-68
2022/09/08 08:59:44;;;;;;;8.93;2.90;;;28.20;93.50;;;;;;4893350;29;20092;-68
2022/09/08 09:02:26;;;;;;;5.75;3.08;;;28.20;93.80;;;;;;4965437;28;20046;-68
2022/09/08 09:05:06;;;;;;;9.05;3.25;;;28.40;94.30;;;;;;4971000;28;20109;-69
2022/09/08 09:07:47;;;;;;;9.77;3.60;;;28.40;93.90;;;;;;4971219;28;20069;-69
2022/09/08 09:10:51;;;;;;;10.43;3.42;;;28.40;94.00;;;;;;4985022;28;20170;-62
2022/09/08 09:13:49;;;;;;;14.32;4.13;;;28.20;93.50;;;;;;4970976;28;20129;-69
2022/09/08 09:16:30;;;;;;;11.90;3.35;;;28.30;93.90;;;;;;4894831;29;20045;-68
2022/09/08 09:18:59;;;;;;;5.35;2.60;;;28.50;93.90;;;;;;4894835;29;20044;-68
2022/09/08 09:22:02;;;;;;;6.45;2.97;;;28.60;93.40;;;;;;4894710;29;20076;-68
2022/09/08 09:24:36;;;;;;;8.23;2.60;;;;;;;;;;4894268;29;20040;-68
2022/09/08 09:27:23;;;;;;;6.47;2.55;;;28.90;92.60;;;;;;4943871;28;20541;-68
2022/09/08 09:30:03;;;;;;;6.78;2.45;;;29.10;94.20;;;;;;4990888;28;20433;-69
2022/09/08 09:33:16;;;;;;;5.85;2.78;;;29.10;91.90;;;;;;4989378;28;20062;-68
2022/09/08 09:36:03;;;;;;;7.93;3.17;;;29.30;94.70;;;;;;4912319;29;20147;-69
2022/09/08 09:38:40;;;;;;;4.15;2.70;;;29.20;95.00;;;;;;4913528;29;20538;-68
2022/09/08 09:41:34;;;;;;;7.55;3.13;;;29.40;94.30;;;;;;4913694;29;20043;-68
2022/09/08 09:44:20;;;;;;;5.53;3.35;;;29.40;93.60;;;;;;4913150;29;20036;-68
2022/09/08 09:47:13;;;;;;;6.30;3.40;;;29.30;96.00;;;;;;4913261;29;20063;-68
2022/09/08 09:49:57;;;;;;;;;;;29.10;95.90;;;;;;4913792;29;20028;-67
2022/09/08 09:52:43;;;;;;;9.63;3.55;;;29.30;97.10;;;;;;4940335;28;20005;-68
2022/09/08 09:55:27;;;;;;;12.13;3.70;;;29.40;96.20;;;;;;4955721;29;20047;-69
2022/09/08 09:58:01;;;;;;;8.48;3.10;;;29.30;95.60;;;;;;4951538;29;20042;-69
2022/09/08 10:00:54;;;;;;;7.28;2.85;;;29.30;98.40;;;;;;4954306;29;20426;-68
2022/09/08 10:03:54;;;;;;;8.95;3.30;;;29.40;96.70;;;;;;4944572;29;20047;-68
2022/09/08 10:06:41;;;;;;;13.55;3.60;;;28.90;95.60;;;;;;4920897;29;20052;-69
2022/09/08 10:09:15;;;;;;;9.45;3.08;;;29.30;97.40;;;;;;4935922;29;20538;-68
2022/09/08 10:11:55;;;;;;;12.27;3.28;;;29.40;96.30;;;;;;4960457;28;20523;-68
2022/09/08 10:14:59;;;;;;;10.68;3.28;;;29.60;95.60;;;;;;5012943;28;20045;-69
2022/09/08 10:18:02;;;;;;;6.03;3.05;;;29.10;92.20;;;;;;5013328;28;20376;-68
2022/09/08 10:21:05;;;;;;;14.00;3.05;;;29.50;94.40;;;;;;5013076;28;20033;-68
2022/09/08 10:24:01;;;;;;;12.80;3.35;;;29.60;92.20;;;;;;5013368;28;20044;-68
2022/09/08 10:26:54;;;;;;;9.15;3.03;;;29.60;92.70;;;;;;5012727;28;20042;-68
2022/09/08 10:29:23;;;;;;;9.93;2.90;;;29.60;90.80;;;;;;5011721;28;20088;-62
2022/09/08 10:32:17;;;;;;;6.97;3.03;;;29.60;90.30;;;;;;5012755;28;20086;-67
2022/09/08 10:34:46;;;;;;;9.20;3.67;;;29.30;93.00;;;;;;5005917;28;20037;-62
2022/09/08 10:37:26;;;;;;;7.85;3.15;;;29.60;91.70;;;;;;5012422;28;20025;-62
2022/09/08 10:40:11;;;;;;;5.80;3.05;;;29.60;90.00;;;;;;5029830;28;20037;-67
2022/09/08 10:43:15;;;;;;;12.02;3.33;;;29.60;90.30;;;;;;5073361;28;20122;-68
2022/09/08 10:46:02;;;;;;;10.50;3.42;;;29.60;91.10;;;;;;5043490;28;20097;-63
2022/09/08 10:48:53;;;;;;;6.85;2.92;;;30.10;92.20;;;;;;5074731;28;20025;-67
2022/09/08 10:51:43;;;;;;;6.05;2.90;;;30.20;91.40;;;;;;5074329;28;20055;-67
2022/09/08 10:54:22;;;;;;;4.80;3.00;;;30.10;90.90;;;;;;5074463;28;20518;-68
2022/09/08 10:56:48;;;;;;;6.70;3.20;;;;;;;;;;5074534;28;20017;-69
2022/09/08 10:59:42;;;;;;;10.85;2.88;;;29.80;90.60;;;;;;5072660;28;20028;-67
2022/09/08 11:02:32;;;;;;;7.30;3.33;;;29.70;89.50;;;;;;5073491;28;20033;-68
2022/09/08 11:05:35;;;;;;;9.82;3.70;;;29.50;89.90;;;;;;5073387;28;20127;-67
2022/09/08 11:08:32;;;;;;;9.20;2.92;;;29.60;90.30;;;;;;5074127;28;20478;-68
2022/09/08 11:11:23;;;;;;;21.50;4.65;;;29.90;90.80;;;;;;5063695;28;20028;-67
2022/09/08 11:14:19;;;;;;;6.88;2.97;;;29.90;91.10;;;;;;5072500;28;20024;-68
2022/09/08 11:17:00;;;;;;;12.07;3.40;;;30.20;92.10;;;;;;5072135;28;20158;-63
2022/09/08 11:19:47;;;;;;;5.38;3.20;;;30.30;94.70;;;;;;5073476;28;20684;-67
2022/09/08 11:22:26;;;;;;;6.63;3.08;;;30.20;91.10;;;;;;5073922;28;20047;-68
2022/09/08 11:24:55;;;;;;;5.50;3.33;;;;;;;;;;5072963;28;20041;-68
2022/09/08 11:27:56;;;;;;;12.18;3.70;;;30.40;96.40;;;;;;5073988;28;20023;-68
2022/09/08 11:30:30;;;;;;;5.57;3.15;;;30.40;90.60;;;;;;5073982;28;20216;-68
2022/09/08 11:33:11;;;;;;;12.25;3.20;;;30.50;90.60;;;;;;5073907;28;20107;-67
2022/09/08 11:35:48;;;;;;;8.85;3.08;;;;;;;;;;5074191;28;20448;-68
2022/09/08 11:38:36;;;;;;;4.65;2.90;;;30.70;90.10;;;;;;5073341;28;20368;-67
2022/09/08 11:41:39;;;;;;;8.02;2.60;;;30.70;90.00;;;;;;5073849;28;20393;-68
2022/09/08 11:44:39;;;;;;;4.65;2.88;;;30.80;90.20;;;;;;5073625;28;20024;-68
2022/09/08 11:47:07;;;;;;;7.78;2.85;;;30.90;87.10;;;;;;5073431;28;20044;-67
2022/09/08 11:49:54;;;;;;;8.85;3.03;;;30.90;88.70;;;;;;5074017;28;20112;-68
2022/09/08 11:52:45;;;;;;;36.05;5.60;;;31.00;86.10;;;;;;5073605;28;20028;-69
2022/09/08 11:55:32;;;;;;;16.95;3.17;;;30.90;85.30;;;;;;5062954;28;20032;-69
2022/09/08 11:58:30;;;;;;;7.40;2.28;;;30.90;86.50;;;;;;5073446;28;20276;-67
2022/09/08 12:01:13;;;;;;;20.40;13.80;;;30.80;86.70;;;;;;4991649;28;20046;-68
2022/09/08 12:03:50;;;;;;;14.95;9.30;;;30.90;87.30;;;;;;4991155;28;20532;-66
2022/09/08 12:06:52;;;;;;;14.43;8.48;;;31.00;87.30;;;;;;4991820;28;20042;-68
2022/09/08 12:09:36;;;;;;;9.57;3.20;;;31.00;88.90;;;;;;4991539;28;20088;-67
2022/09/08 12:12:10;;;;;;;21.83;14.63;;;31.00;92.60;;;;;;4991681;28;20042;-68
2022/09/08 12:14:57;;;;;;;12.02;8.88;;;31.10;90.60;;;;;;4990435;28;20030;-67
2022/09/08 12:17:52;;;;;;;10.65;3.92;;;31.20;92.90;;;;;;4991424;28;20034;-67
2022/09/08 12:20:32;;;;;;;6.90;3.05;;;31.10;91.50;;;;;;4991422;28;20096;-69
2022/09/08 12:22:58;;;;;;;8.32;3.28;;;30.80;89.70;;;;;;4990463;28;20034;-68
2022/09/08 12:25:42;;;;;;;6.95;2.88;;;31.00;90.00;;;;;;4991258;28;20542;-67
2022/09/08 12:28:27;;;;;;;18.00;4.30;;;31.00;89.80;;;;;;4991211;28;20381;-67
2022/09/08 12:31:23;;;;;;;10.65;3.40;;;30.90;90.30;;;;;;4991009;28;20041;-67
2022/09/08 12:34:27;;;;;;;9.25;3.45;;;30.90;90.80;;;;;;4990443;28;20117;-68
2022/09/08 12:37:20;;;;;;;11.40;3.42;;;31.00;89.70;;;;;;4969991;28;20045;-67
2022/09/08 12:40:01;;;;;;;9.40;2.83;;;31.00;90.00;;;;;;4933163;29;20031;-68
2022/09/08 12:42:37;;;;;;;5.90;2.70;;;31.00;89.10;;;;;;4932376;29;20320;-68
2022/09/08 12:45:33;;;;;;;6.55;2.40;;;31.00;87.10;;;;;;4932887;29;20463;-68
2022/09/08 12:48:20;;;;;;;7.22;2.75;;;31.10;85.90;;;;;;4917141;29;20031;-68
2022/09/08 12:51:28;;;;;;;7.82;3.10;;;31.10;89.30;;;;;;4932673;29;20380;-68
2022/09/08 12:54:11;;;;;;;8.38;2.50;;;31.30;88.20;;;;;;4895078;29;20483;-68
2022/09/08 12:56:55;;;;;;;8.60;3.53;;;31.40;88.00;;;;;;4879079;29;20045;-68
2022/09/08 12:59:49;;;;;;;6.45;3.30;;;31.10;90.30;;;;;;4894905;29;20036;-67
2022/09/08 13:02:27;;;;;;;4.28;2.75;;;31.20;90.40;;;;;;4894816;29;20037;-68
2022/09/08 13:05:23;;;;;;;7.35;3.22;;;31.00;88.50;;;;;;4894040;29;20040;-69
2022/09/08 13:08:13;;;;;;;10.65;3.20;;;31.00;87.70;;;;;;4894177;29;20607;-68
2022/09/08 13:10:48;;;;;;;10.80;3.35;;;31.00;88.20;;;;;;4900445;29;20036;-66
2022/09/08 13:13:32;;;;;;;6.70;2.53;;;31.10;88.70;;;;;;4909671;29;20046;-65
2022/09/08 13:16:10;;;;;;;5.75;2.40;;;31.10;89.90;;;;;;4920807;28;20107;-69
2022/09/08 13:19:20;;;;;;;7.80;3.40;;;31.10;86.60;;;;;;4989982;28;20046;-67
2022/09/08 13:22:23;;;;;;;6.57;2.35;;;31.30;90.30;;;;;;4913353;29;20055;-68
2022/09/08 13:25:27;;;;;;;6.38;2.83;;;31.40;83.80;;;;;;4912713;29;20052;-69
2022/09/08 13:28:04;;;;;;;8.57;2.97;;;31.30;88.00;;;;;;4913350;29;20517;-68
2022/09/08 13:30:33;;;;;;;19.65;4.90;;;31.10;86.60;;;;;;4937892;28;20097;-69
2022/09/08 13:33:08;;;;;;;13.95;3.92;;;31.00;85.90;;;;;;4989743;28;20042;-68